Wpx Energy Inc (WPX) Latest Bloomsberg Price


Mffais Ranking #2245 Overall / #56 Industry
Industry: Exploration And Production

Number of Companies: 260 (Ranking #609 Overall/#24 Industry)
Inflow: $ 177,604 (K) (Ranking #662 Overall/#29 Industry)
Outflow: $ -216,895 (K)
Mffais Flow: $ -39,291 (K) (Ranking #2245 Overall/#56 Industry)


Receive a FREE weekly executive review of stocks moving into the top 10, taking the top industy spot or moving up within their industry. Sent directly to your Inbox every Saturday. Sign up today and get last week's review immediately sent to you.

We value and respect your privacy. Please read our Terms and Conditions which states our firm commitment to your privacy. Your email address will not be shared with a third party, nor will it be sold or used for purposes other than subscription for the weekly review.

Owner CPOR Shares Action Qty Chg Invested (K) Total Current Value (K)
Vaughan Nelson Investment Management L P 2016-09-30 3,714,250 New Holding 3,714,250 $ 34,988 $ 34,988
Dimensional Fund Advisors Lp 2016-09-30 17,972,224 Added More 2,825,607 $ 26,617 $ 169,298
Thrivent Financial For Lutherans 2016-09-30 7,490,165 Added More 1,248,195 $ 11,757 $ 70,557
Hodges Capital Management Inc 2016-09-30 1,229,600 Added More 1,153,600 $ 10,866 $ 11,582
Voloridge Investment Management Llc 2016-09-30 907,757 New Holding 907,757 $ 8,551 $ 8,551
Columbus Circle Investors 2016-09-30 893,737 New Holding 893,737 $ 8,419 $ 8,419
Vollero Beach Capital Partners Llc 2016-09-30 726,952 New Holding 726,952 $ 6,847 $ 6,847
Employees Retirement System Of Texas 2016-09-30 707,000 New Holding 707,000 $ 6,659 $ 6,659
Glg Partners Lp 2016-09-30 600,000 New Holding 600,000 $ 5,652 $ 5,652
Anchorage Capital Group L L C 2016-09-30 600,000 New Holding 600,000 $ 5,652 $ 5,652
Northern Trust Corp 2016-09-30 3,207,890 Added More 554,731 $ 5,225 $ 30,218
Encompass Capital Advisors Llc 2016-09-30 2,568,948 Added More 368,948 $ 3,475 $ 24,199
Monarch Partners Asset Management Llc 2016-09-30 1,010,330 Added More 343,460 $ 3,235 $ 9,517
Brandywine Global Investment Management Llc 2016-09-30 1,055,516 Added More 281,173 $ 2,648 $ 9,942
Ngam Advisors L P 2016-09-30 217,725 New Holding 217,725 $ 2,050 $ 2,050
Henderson Group Plc 2016-09-30 614,315 Added More 197,667 $ 1,862 $ 5,786
Blackrock Investment Management Llc 2016-09-30 1,015,454 Added More 196,813 $ 1,853 $ 9,565
Parametric Portfolio Associates Llc 2016-09-30 682,063 Added More 184,200 $ 1,735 $ 6,425
Glg Llc 2016-09-30 150,000 New Holding 150,000 $ 1,413 $ 1,413
California State Teachers Retirement System 2016-09-30 730,234 Added More 129,600 $ 1,220 $ 6,878
Cornerstone Capital Management Holdings Llc 2016-09-30 300,403 Added More 128,297 $ 1,208 $ 2,829
American International Group Inc 2016-09-30 665,010 Added More 127,966 $ 1,205 $ 6,264
Driehaus Capital Management Llc 2016-09-30 180,949 Added More 125,949 $ 1,186 $ 1,704
Teachers Retirement System Of The State Of Kentucky 2016-09-30 289,041 Added More 123,178 $ 1,160 $ 2,722
King Luther Capital Management Corp 2016-09-30 989,430 Added More 122,255 $ 1,151 $ 9,320
New York State Common Retirement Fund 2016-09-30 1,636,465 Added More 116,690 $ 1,099 $ 15,415
Gotham Asset Management Llc 2016-09-30 110,044 New Holding 110,044 $ 1,036 $ 1,036
Rhumbline Advisers 2016-09-30 538,682 Added More 104,411 $ 983 $ 5,074
Kingdon Capital Management L L C 2016-09-30 2,359,722 Added More 101,102 $ 952 $ 22,228
Walleye Trading Llc 2016-09-30 428,500 Added More 97,300 $ 916 $ 4,036
Bokf Na 2016-09-30 122,231 Added More 95,819 $ 902 $ 1,151
Broadview Advisors Llc 2016-09-30 95,450 New Holding 95,450 $ 899 $ 899
Legal General Group Plc 2016-09-30 417,776 Added More 86,469 $ 814 $ 3,935
Retirement Systems Of Alabama 2016-09-30 443,728 Added More 86,126 $ 811 $ 4,179
Lord Abbett Co Llc 2016-09-30 1,132,229 Added More 77,607 $ 731 $ 10,665
Css Llc Il 2016-09-30 71,009 New Holding 71,009 $ 668 $ 668
Peak6 Investments L P 2016-09-30 65,800 New Holding 65,800 $ 619 $ 619
Comerica Bank 2016-09-30 260,299 Added More 52,910 $ 498 $ 2,452
Mutual Of America Capital Management Llc 2016-09-30 261,705 Added More 52,037 $ 490 $ 2,465
Squarepoint Ops Llc 2016-09-30 51,973 New Holding 51,973 $ 489 $ 489
Zacks Investment Management 2016-09-30 51,246 New Holding 51,246 $ 482 $ 482
Teachers Advisors Inc 2016-09-30 1,897,272 Added More 50,436 $ 475 $ 17,872
Texas Permanent School Fund 2016-09-30 262,312 Added More 50,343 $ 474 $ 2,470
Cubist Systematic Strategies Llc 2016-09-30 57,296 Added More 49,268 $ 464 $ 539
Liberty Mutual Group Asset Management Inc 2016-09-30 150,848 Added More 49,198 $ 463 $ 1,420
Engineers Gate Manager Lp 2016-09-30 215,900 Added More 40,775 $ 384 $ 2,033
Nuveen Asset Management Llc 2016-09-30 507,425 Added More 40,755 $ 383 $ 4,779
Oregon Public Employees Retirement Fund 2016-09-30 118,903 Added More 40,578 $ 382 $ 1,120
Blackrock Inc 2016-09-30 234,652 Added More 37,836 $ 356 $ 2,210
Pacer Advisors Inc 2016-09-30 33,036 New Holding 33,036 $ 311 $ 311
Mason Street Advisors Llc 2016-09-30 159,320 Added More 32,898 $ 309 $ 1,500
Cove Street Capital Llc 2016-09-30 715,787 Added More 31,765 $ 299 $ 6,742
New York State Teachers Retirement System 2016-09-30 389,810 Added More 31,400 $ 295 $ 3,672
Rafferty Asset Management Llc 2016-09-30 30,870 New Holding 30,870 $ 290 $ 290
State Treasurer State Of Michigan 2016-09-30 138,600 Added More 27,400 $ 258 $ 1,305
Arizona State Retirement System 2016-09-30 134,500 Added More 26,200 $ 246 $ 1,266
Axa 2016-09-30 26,100 New Holding 26,100 $ 245 $ 245
Cutler Group Lp 2016-09-30 272,500 Added More 25,801 $ 243 $ 2,566
Carlson Capital L P 2016-09-30 6,439,002 Added More 22,790 $ 214 $ 60,655
Caprock Group Inc 2016-09-30 22,558 New Holding 22,558 $ 212 $ 212
Canal Insurance Co 2016-09-30 150,500 Added More 22,000 $ 207 $ 1,417
Pyrrho Capital Management Lp 2016-09-30 20,000 New Holding 20,000 $ 188 $ 188
Utah Retirement Systems 2016-09-30 60,761 Added More 18,700 $ 176 $ 572
Fox Run Management L L C 2016-09-30 18,300 New Holding 18,300 $ 172 $ 172
Pitcairn Co 2016-09-30 17,749 New Holding 17,749 $ 167 $ 167
First Mercantile Trust Co 2016-09-30 63,800 Added More 16,715 $ 157 $ 600
Tlp Group Llc 2016-09-30 14,146 New Holding 14,146 $ 133 $ 133
Northwestern Mutual Investment Management Company Llc 2016-09-30 59,296 Added More 11,436 $ 107 $ 558
Cadence Capital Management Llc 2016-09-30 10,513 New Holding 10,513 $ 99 $ 99
Van Eck Associates Corp 2016-09-30 51,349 Added More 10,088 $ 95 $ 483
Nomura Asset Management Co Ltd 2016-09-30 15,700 Added More 9,800 $ 92 $ 147
World Asset Management Inc 2016-09-30 22,414 Added More 8,750 $ 82 $ 211
Advantus Capital Management Inc 2016-09-30 41,909 Added More 8,335 $ 78 $ 394
Bronfman E L Rothschild L P 2016-09-30 7,234 Added More 7,082 $ 66 $ 68
Aperio Group Llc 2016-09-30 59,979 Added More 6,966 $ 65 $ 565
Ls Investment Advisors Llc 2016-09-30 22,157 Added More 5,443 $ 51 $ 208
Proshare Advisors Llc 2016-09-30 55,447 Added More 4,612 $ 43 $ 522
Oakbrook Investments Llc 2016-09-30 29,515 Added More 4,134 $ 38 $ 278
Commonwealth Bank Of Australia 2016-09-30 52,100 Added More 2,800 $ 26 $ 490
M T Bank Corp 2016-09-30 18,045 Added More 2,705 $ 25 $ 169
Finemark National Bank Trust 2016-09-30 2,587 New Holding 2,587 $ 24 $ 24
Capstone Asset Management Co 2016-09-30 46,640 Added More 2,520 $ 23 $ 439
Tradelink Capital Llc 2016-09-30 17,668 Added More 2,500 $ 23 $ 166
Tower Research Capital Llc Trc 2016-09-30 25,114 Added More 1,997 $ 18 $ 236
Creative Planning 2016-09-30 16,754 Added More 1,401 $ 13 $ 157
Zurcher Kantonalbank Zurich Cantonalbank 2016-09-30 9,590 Added More 1,298 $ 12 $ 90
Advisors Asset Management Inc 2016-09-30 7,400 Added More 1,200 $ 11 $ 69
New York Life Trust Co 2016-09-30 1,026 New Holding 1,026 $ 9 $ 9
Wealthtrust-Arizona Llc 2016-09-30 843 New Holding 843 $ 7 $ 7
Mariner Wealth Advisors Llc 2016-09-30 93,807 Added More 812 $ 7 $ 883
Pnc Financial Services Group Inc 2016-09-30 13,095 Added More 672 $ 6 $ 123
Msi Financial Services Inc 2016-09-30 1,001 Added More 600 $ 5 $ 9
Gemmer Asset Management Llc 2016-09-30 618 Added More 385 $ 3 $ 5
Next Financial Group Inc 2016-09-30 284 Added More 192 $ 1 $ 2
Ifp Advisors Inc 2016-09-30 1,417 Added More 152 $ 1 $ 13
Agf Investments America Inc 2016-09-30 44,150 Added More 152 $ 1 $ 415
Proficio Capital Partners Llc 2016-09-30 105 New Holding 105 $ 0 $ 0
Salem Investment Counselors Inc 2016-09-30 100 New Holding 100 $ 0 $ 0
Cambridge Investment Research Advisors Inc 2016-09-30 22,664 Added More 67 $ 0 $ 213
Central Trust Co 2016-09-30 34 New Holding 34 $ 0 $ 0
Eqis Capital Management Inc 2016-09-30 21,302 Added More 7 $ 0 $ 200
Kanaly Trust Co 2016-09-30 302 No Change 0 $ 0 $ 2
Fifth Third Bancorp 2016-09-30 2,727 No Change 0 $ 0 $ 25
Capital Guardian Trust Co 2016-09-30 1,366 No Change 0 $ 0 $ 12
Old National Bancorp In 2016-09-30 25,600 No Change 0 $ 0 $ 241
First Manhattan Co 2016-09-30 7,544 No Change 0 $ 0 $ 71
Delta Asset Management Llc Tn 2016-09-30 349 No Change 0 $ 0 $ 3
Royce Associates Lp 2016-09-30 176,000 No Change 0 $ 0 $ 1,657
Loring Wolcott Coolidge Fiduciary Advisors Llp Ma 2016-09-30 3,666 No Change 0 $ 0 $ 34
Nisa Investment Advisors Llc 2016-09-30 1,466 No Change 0 $ 0 $ 13
Shelton Capital Management 2016-09-30 19,483 No Change 0 $ 0 $ 183
Thompson Davis Co Inc 2016-09-30 33 No Change 0 $ 0 $ 0
Ibm Retirement Fund 2016-09-30 27,879 No Change 0 $ 0 $ 262
Smithfield Trust Co 2016-09-30 1,000 No Change 0 $ 0 $ 9
Enterprise Financial Services Corp 2016-09-30 1 No Change 0 $ 0 $ 0
Financial Partners Capital Management Llc 2016-09-30 23,320 No Change 0 $ 0 $ 219
Omers Administration Corp 2016-09-30 34,300 No Change 0 $ 0 $ 323
Bessemer Group Inc 2016-09-30 3,500 No Change 0 $ 0 $ 32
First Interstate Bank 2016-09-30 99 No Change 0 $ 0 $ 0
Karpas Strategies Llc 2016-09-30 29,891 No Change 0 $ 0 $ 281
Prentiss Smith Co Inc 2016-09-30 110 No Change 0 $ 0 $ 1
Whittier Trust Co 2016-09-30 1,168 No Change 0 $ 0 $ 11
Fca Corp Tx 2016-09-30 22,944 No Change 0 $ 0 $ 216
Whittier Trust Co Of Nevada Inc 2016-09-30 58 No Change 0 $ 0 $ 0
Basso Capital Management L P 2016-09-30 50,000 No Change 0 $ 0 $ 471
North Star Investment Management Corp 2016-09-30 33 No Change 0 $ 0 $ 0
Estabrook Capital Management 2016-09-30 116 No Change 0 $ 0 $ 1
Financial Architects Inc 2016-09-30 266 No Change 0 $ 0 $ 2
Gam Holding Ag 2016-09-30 20,845 No Change 0 $ 0 $ 196
Old Mutual Customised Solutions Proprietary Ltd 2016-09-30 12,600 No Change 0 $ 0 $ 118
Mount Kellett Capital Management Lp 2016-09-30 2,894,770 No Change 0 $ 0 $ 27,268
State Of New Jersey Common Pension Fund D 2016-09-30 185,000 No Change 0 $ 0 $ 1,742
Nj State Employees Deferred Compensation Plan 2016-09-30 16,666 No Change 0 $ 0 $ 156
Tctc Holdings Llc 2016-09-30 335,393 No Change 0 $ 0 $ 3,159
Pathstone Family Office Llc 2016-09-30 1,000 No Change 0 $ 0 $ 9
Perkins Coie Trust Co 2016-09-30 9,638 No Change 0 $ 0 $ 90
Highlander Capital Management Llc 2016-09-30 5,111 No Change 0 $ 0 $ 48
Capwealth Advisors Llc 2016-09-30 117 No Change 0 $ 0 $ 1
Wfg Advisors Lp 2016-09-30 166 No Change 0 $ 0 $ 1
Cwm Llc 2016-09-30 49 No Change 0 $ 0 $ 0
Gradient Investments Llc 2016-09-30 1,000 No Change 0 $ 0 $ 9
Hudock Capital Group Llc 2016-09-30 105 No Change 0 $ 0 $ 0
First Reserve Gp Xii Ltd 2016-09-30 7,787,732 No Change 0 $ 0 $ 73,360
Southport Management L L C 2016-09-30 100,000 No Change 0 $ 0 $ 942
Private Advisor Group Llc 2016-09-30 13,027 No Change 0 $ 0 $ 122
Carroll Financial Associates Inc 2016-09-30 200 No Change 0 $ 0 $ 1
Winfield Associates Inc 2016-09-30 200 No Change 0 $ 0 $ 1
Alexandria Capital Llc 2016-09-30 33 No Change 0 $ 0 $ 0
Advisory Services Network Llc 2016-09-30 739 No Change 0 $ 0 $ 6
Oakworth Capital Inc 2016-09-30 849 No Change 0 $ 0 $ 7
Tortoise Investment Management Llc 2016-09-30 66 No Change 0 $ 0 $ 0
Cypress Capital Management Llc Wy 2016-09-30 11,141 No Change 0 $ 0 $ 104
Quadrant Capital Group Llc 2016-09-30 2,428 No Change 0 $ 0 $ 22
Integrated Investment Consultants Llc 2016-09-30 500 No Change 0 $ 0 $ 4
Wespac Advisors Socal Llc 2016-09-30 200 No Change 0 $ 0 $ 1
Sevenbridge Financial Group Llc 2016-09-30 33 No Change 0 $ 0 $ 0
Jacobi Capital Management Llc 2016-09-30 559 No Change 0 $ 0 $ 5
Krilogy Financial Llc 2016-09-30 0 Sold All -3 $ -0 $ 0
Financial Counselors Inc 2016-06-30 14,705 Sold Some -50 $ -0 $ 136
Hanseatic Management Services Inc 2016-09-30 102 Sold Some -80 $ -0 $ 0
Weaver C Barksdale Associates Inc 2016-09-30 419 Sold Some -81 $ -0 $ 3
Peoples United Financial Inc 2016-09-30 6,412 Sold Some -126 $ -1 $ 60
Northwestern Mutual Wealth Management Co 2016-09-30 1,670 Sold Some -133 $ -1 $ 15
Longfellow Investment Management Co Llc 2016-09-30 0 Sold All -166 $ -1 $ 0
Veritable L P 2016-09-30 10,555 Sold Some -200 $ -1 $ 99
Ladenburg Thalmann Financial Services Inc 2016-09-30 2,120 Sold Some -297 $ -2 $ 19
Westport Resources Management Inc 2016-09-30 66 Sold Some -332 $ -3 $ 0
Capital Investment Advisors Llc 2016-09-30 11,953 Sold Some -366 $ -3 $ 112
Frontier Wealth Management Llc 2016-09-30 15,315 Sold Some -715 $ -6 $ 144
Sei Investments Co 2016-09-30 6,754 Sold Some -747 $ -7 $ 63
Us Bancorp De 2016-09-30 19,661 Sold Some -842 $ -7 $ 185
Advisor Group Inc 2016-09-30 11,694 Sold Some -1,621 $ -15 $ 110
Patten Group Inc 2016-09-30 4,483 Sold Some -1,675 $ -15 $ 42
Nuveen Fund Advisors Llc 2016-09-30 10,608 Sold Some -1,838 $ -17 $ 99
Robotti Robert 2016-09-30 54,850 Sold Some -2,400 $ -22 $ 516
Horizon Kinetics Llc 2016-09-30 73,278 Sold Some -3,145 $ -29 $ 690
Simplex Trading Llc 2016-09-30 33,822 Sold Some -3,371 $ -31 $ 318
361 Capital Llc 2016-09-30 2,405 Sold Some -3,565 $ -33 $ 22
Connable Office Inc 2016-09-30 11,020 Sold Some -3,790 $ -35 $ 103
Teacher Retirement System Of Texas 2016-09-30 34,212 Sold Some -4,045 $ -38 $ 322
Pinnacle Holdings Llc 2016-09-30 0 Sold All -4,630 $ -43 $ 0
Manchester Capital Management Llc 2016-09-30 0 Sold All -6,000 $ -56 $ 0
Swiss National Bank 2016-09-30 526,500 Sold Some -6,500 $ -61 $ 4,959
Checchi Capital Advisers Llc 2016-09-30 0 Sold All -6,569 $ -61 $ 0
Castleton Investment Management Llc 2016-09-30 23,000 Sold Some -7,000 $ -65 $ 216
Wasatch Advisors Inc 2016-09-30 748,018 Sold Some -8,457 $ -79 $ 7,046
Equitec Specialists Llc 2016-09-30 0 Sold All -10,000 $ -94 $ 0
Envestnet Asset Management Inc 2016-09-30 1,240 Sold Some -10,245 $ -96 $ 11
Hightower Advisors Llc 2016-09-30 0 Sold All -10,532 $ -99 $ 0
Spot Trading L L C 2016-09-30 325,733 Sold Some -10,600 $ -99 $ 3,068
Ontario Teachers Pension Plan Board 2016-09-30 0 Sold All -10,750 $ -101 $ 0
Bayesian Capital Management Lp 2016-09-30 0 Sold All -10,803 $ -101 $ 0
Profund Advisors Llc 2016-09-30 58,451 Sold Some -11,124 $ -104 $ 550
Sheaff Brock Investment Advisors Llc 2016-09-30 0 Sold All -11,164 $ -105 $ 0
Raymond James Associates 2016-09-30 0 Sold All -12,440 $ -117 $ 0
Commerzbank Aktiengesellschaft Fi 2016-09-30 0 Sold All -14,374 $ -135 $ 0
Hsbc Holdings Plc 2016-09-30 31,835 Sold Some -14,771 $ -139 $ 299
Verition Fund Management Llc 2016-09-30 0 Sold All -14,808 $ -139 $ 0
Dynamic Technology Lab Private Ltd 2016-09-30 0 Sold All -15,331 $ -144 $ 0
Gsa Capital Partners Llp 2016-09-30 0 Sold All -19,575 $ -184 $ 0
Hutchin Hill Capital Lp 2016-09-30 0 Sold All -20,400 $ -192 $ 0
Meeder Asset Management Inc 2016-09-30 25,331 Sold Some -24,367 $ -229 $ 238
Clinton Group Inc 2016-09-30 0 Sold All -27,791 $ -261 $ 0
Agf Investments Inc 2016-09-30 1,330,842 Sold Some -29,155 $ -274 $ 12,536
Raymond James Financial Services Advisors Inc 2016-09-30 42,556 Sold Some -29,191 $ -274 $ 400
Oppenheimer Co Inc 2016-09-30 996,487 Sold Some -29,200 $ -275 $ 9,386
Mitchell Group Inc 2016-09-30 2,177,730 Sold Some -29,370 $ -276 $ 20,514
Parkwood Llc 2016-09-30 76,455 Sold Some -39,958 $ -376 $ 720
Bluemountain Capital Management Llc 2016-09-30 23,905 Sold Some -41,506 $ -390 $ 225
Tudor Investment Corp Et Al 2016-09-30 0 Sold All -44,514 $ -419 $ 0
Laurion Capital Management Lp 2016-09-30 0 Sold All -46,500 $ -438 $ 0
Guggenheim Capital Llc 2016-09-30 664,115 Sold Some -46,734 $ -440 $ 6,255
Homrich Berg 2016-09-30 16,299 Sold Some -49,776 $ -468 $ 153
Group One Trading L P 2016-09-30 143,500 Sold Some -54,820 $ -516 $ 1,351
Arete Wealth Advisors Llc 2016-09-30 0 Sold All -55,504 $ -522 $ 0
Stevens Capital Management Lp 2016-09-30 0 Sold All -57,241 $ -539 $ 0
Grt Capital Partners L L C 2016-09-30 982,109 Sold Some -73,510 $ -692 $ 9,251
Ingalls Snyder Llc 2016-09-30 267,729 Sold Some -82,786 $ -779 $ 2,522
Nationwide Fund Advisors 2016-09-30 791,166 Sold Some -84,947 $ -800 $ 7,452
Seven Eight Capital Llc 2016-09-30 0 Sold All -85,924 $ -809 $ 0
Sg Americas Securities Llc 2016-09-30 38,142 Sold Some -92,506 $ -871 $ 359
Boyle Capital Management L L C 2016-09-30 0 Sold All -97,154 $ -915 $ 0
Brant Point Investment Management Llc 2016-09-30 0 Sold All -100,000 $ -942 $ 0
Capital Fund Management S A 2016-09-30 34,261 Sold Some -108,382 $ -1,020 $ 322
Jvl Advisors L L C 2016-09-30 7,029,095 Sold Some -110,394 $ -1,039 $ 66,214
Pacad Investment Ltd 2016-09-30 49,906 Sold Some -121,711 $ -1,146 $ 470
Peconic Partners Llc 2016-09-30 0 Sold All -126,000 $ -1,186 $ 0
Bluecrest Capital Management Ltd 2016-09-30 0 Sold All -139,157 $ -1,310 $ 0
Selz Capital Llc 2016-09-30 1,000,000 Sold Some -140,000 $ -1,318 $ 9,420
Springbok Capital Management Llc 2016-09-30 277,596 Sold Some -142,360 $ -1,341 $ 2,614
Highbridge Capital Management Llc 2016-09-30 0 Sold All -151,285 $ -1,425 $ 0
Panagora Asset Management Inc 2016-09-30 706,781 Sold Some -159,023 $ -1,497 $ 6,657
Trexquant Investment Lp 2016-09-30 58,500 Sold Some -159,137 $ -1,499 $ 551
Jane Street Group Llc 2016-09-30 25,289 Sold Some -164,247 $ -1,547 $ 238
Bp Capital Fund Advisors Llc 2016-09-30 1,131,046 Sold Some -178,235 $ -1,678 $ 10,654
Geosphere Capital Management 2016-09-30 330,000 Sold Some -185,000 $ -1,742 $ 3,108
Tph Asset Management Llc 2016-09-30 1,430,810 Sold Some -206,500 $ -1,945 $ 13,478
Everpoint Asset Management Llc 2016-09-30 0 Sold All -225,000 $ -2,119 $ 0
Emerald Acquisition Ltd 2016-09-30 322,609 Sold Some -237,311 $ -2,235 $ 3,038
Dalton Greiner Hartman Maher Co 2016-09-30 1,058,663 Sold Some -255,930 $ -2,410 $ 9,972
Piermont Capital Management Inc 2016-09-30 0 Sold All -267,685 $ -2,521 $ 0
Maple Rock Capital Partners Inc 2016-09-30 2,183,000 Sold Some -275,000 $ -2,590 $ 20,563
I G Investment Management Ltd 2016-09-30 942,860 Sold Some -283,288 $ -2,668 $ 8,881
Aegis Financial Corp 2016-09-30 696,525 Sold Some -294,846 $ -2,777 $ 6,561
Quantitative Investment Management Llc 2016-09-30 0 Sold All -322,000 $ -3,033 $ 0
Goodhaven Capital Management Llc 2016-09-30 4,099,724 Sold Some -387,900 $ -3,654 $ 38,619
Systematic Financial Management Lp 2016-09-30 0 Sold All -453,580 $ -4,272 $ 0
Airain Ltd 2016-09-30 0 Sold All -464,585 $ -4,376 $ 0
Grantham Mayo Van Otterloo Co Llc 2016-09-30 0 Sold All -559,100 $ -5,266 $ 0
Spark Investment Management Llc 2016-09-30 213,500 Sold Some -631,950 $ -5,952 $ 2,011
Mackenzie Financial Corp 2016-09-30 2,061,783 Sold Some -679,949 $ -6,405 $ 19,421
Clough Capital Partners L P 2016-09-30 2,541,500 Sold Some -690,400 $ -6,503 $ 23,940
Heartland Advisors Inc 2016-09-30 1,412,097 Sold Some -875,000 $ -8,242 $ 13,301
Pinebridge Investments L P 2016-09-30 3,141 Sold Some -996,275 $ -9,384 $ 29
Fuller Thaler Asset Management Inc 2016-09-30 6,255,589 Sold Some -999,290 $ -9,413 $ 58,927
Schneider Capital Management Corp 2016-09-30 0 Sold All -1,776,774 $ -16,737 $ 0
Zimmer Partners Lp 2016-09-30 0 Sold All -2,000,000 $ -18,840 $ 0
Msd Partners L P 2016-09-30 0 Sold All -2,202,600 $ -20,748 $ 0
Marshall Wace Llp 2016-09-30 147,008 Sold Some -2,240,474 $ -21,105 $ 1,384
Shapiro Capital Management Llc 2016-09-30 13,522,108 Sold Some -2,326,541 $ -21,916 $ 127,378